Time;durP1;ratioP1;P1;durP2;ratioP2;P2;SDS_P1;SDS_P2;PMS_P1;PMS_P2;Temp;Humidity;BMP_temperature;BMP_pressure;BME280_temperature;BME280_humidity;BME280_pressure;Samples;Min_cycle;Max_cycle;Signal;HPM_P1;HPM_P2
2022/09/14 00:00:51;;;;;;;;;9.00;9.00;;;;;24.83;91.98;102463.91;4994091;28;45453;-73
2022/09/14 00:03:17;;;;;;;;;9.33;9.33;;;;;24.82;92.23;99628.41;4988585;28;45677;-73
2022/09/14 00:05:43;;;;;;;;;8.33;8.33;;;;;24.84;92.46;99147.47;4993621;28;46119;-73
2022/09/14 00:08:10;;;;;;;;;10.00;10.00;;;;;24.81;92.17;100220.91;4998166;28;45696;-72
2022/09/14 00:10:42;;;;;;;;;9.67;9.00;;;;;24.80;92.95;96255.75;5012335;28;45517;-72
2022/09/14 00:13:09;;;;;;;;;7.33;7.33;;;;;24.79;92.78;94791.19;4993840;28;45535;-73
2022/09/14 00:15:39;;;;;;;;;9.67;9.67;;;;;24.74;93.52;91928.75;4993709;28;46791;-72
2022/09/14 00:18:06;;;;;;;;;9.33;8.00;;;;;24.77;93.72;89630.88;4993729;28;45600;-72
2022/09/14 00:20:32;;;;;;;;;9.00;9.00;;;;;24.79;93.98;88831.94;4994305;28;45374;-73
2022/09/14 00:22:58;;;;;;;;;9.33;9.33;;;;;24.78;93.11;89596.28;4994334;28;45447;-73
2022/09/14 00:25:25;;;;;;;;;8.67;5.00;;;;;24.65;93.86;88623.25;4993736;28;45395;-73
2022/09/14 00:27:51;;;;;;;;;9.33;8.00;;;;;24.74;93.25;90571.66;4993958;28;45537;-72
2022/09/14 00:30:16;;;;;;;;;10.00;9.67;;;;;24.74;93.15;89750.56;4993943;28;45319;-72
2022/09/14 00:32:41;;;;;;;;;8.67;7.33;;;;;24.74;91.10;101094.94;4976481;28;45526;-73
2022/09/14 00:35:07;;;;;;;;;8.67;6.00;;;;;24.71;91.20;102451.22;4993129;28;46113;-73
2022/09/14 00:37:33;;;;;;;;;4.00;4.00;;;;;24.66;90.65;107590.38;4993604;28;45259;-73
2022/09/14 00:39:59;;;;;;;;;6.00;6.00;;;;;24.69;91.12;107430.22;5025810;28;45297;-71
2022/09/14 00:42:24;;;;;;;;;4.00;4.00;;;;;24.64;91.28;107659.53;4990943;28;45420;-71
2022/09/14 00:44:49;;;;;;;;;5.33;4.67;;;;;24.70;91.52;104042.38;4987751;28;46331;-70
2022/09/14 00:47:16;;;;;;;;;6.33;4.33;;;;;24.70;92.07;103430.41;4993218;28;45338;-71
2022/09/14 00:49:43;;;;;;;;;5.67;5.67;;;;;24.67;91.94;103417.84;4983337;28;45387;-70
2022/09/14 00:52:25;;;;;;;;;6.00;6.00;;;;;24.58;92.83;99564.97;4980399;28;45401;-71
2022/09/14 00:54:54;;;;;;;;;8.00;8.00;;;;;24.58;92.77;97709.09;4986516;28;45531;-71
2022/09/14 00:57:20;;;;;;;;;7.67;7.00;;;;;24.59;93.42;93506.22;4984115;28;45539;-70
2022/09/14 00:59:49;;;;;;;;;8.00;8.00;;;;;24.58;93.64;92214.53;4986097;28;45443;-71
2022/09/14 01:02:17;;;;;;;;;9.33;8.00;;;;;24.59;93.87;91354.84;4981760;28;45571;-71
2022/09/14 01:04:43;;;;;;;;;9.67;9.00;;;;;24.57;92.72;95115.75;4985585;28;45641;-71
2022/09/14 01:07:25;;;;;;;;;10.00;8.33;;;;;24.50;92.66;95646.78;4987697;28;45516;-71
2022/09/14 01:10:00;;;;;;;;;8.00;8.00;;;;;24.54;92.94;95916.53;4968249;28;45566;-71
2022/09/14 01:12:34;;;;;;;;;9.67;7.00;;;;;24.53;92.18;99097.97;4991198;28;45478;-70
2022/09/14 01:15:26;;;;;;;;;6.33;6.33;;;;;24.52;92.13;101813.84;4980119;28;46358;-70
2022/09/14 01:18:06;;;;;;;;;7.00;7.00;;;;;24.52;90.44;109968.53;4992259;28;45432;-70
2022/09/14 01:20:37;;;;;;;;;6.00;6.00;;;;;24.50;92.06;103470.69;4986680;28;45645;-70
2022/09/14 01:23:40;;;;;;;;;6.33;6.00;;;;;24.50;90.99;109336.69;4991796;28;45627;-70
2022/09/14 01:26:24;;;;;;;;;2.00;2.00;;;;;24.32;92.14;102507.72;4984841;28;46086;-70
2022/09/14 01:29:18;;;;;;;;;7.67;4.00;;;;;24.21;92.57;102148.84;4990534;28;45447;-71
2022/09/14 01:31:56;;;;;;;;;5.00;5.00;;;;;24.20;92.12;103234.38;4995069;28;45463;-70
2022/09/14 01:34:21;;;;;;;;;6.00;6.00;;;;;24.20;92.35;100066.00;4985899;28;45444;-70
2022/09/14 01:36:52;;;;;;;;;5.33;5.00;;;;;24.08;91.75;106192.69;4993676;28;45528;-71
2022/09/14 01:39:21;;;;;;;;;6.00;4.33;;;;;24.22;92.72;103166.16;4973436;28;45850;-70
2022/09/14 01:41:49;;;;;;;;;5.00;5.00;;;;;24.40;90.27;110720.88;4974963;28;45568;-70
2022/09/14 01:44:31;;;;;;;;;3.50;3.50;;;;;24.43;89.27;118279.34;4993495;28;45403;-70
2022/09/14 01:47:03;;;;;;;;;5.50;3.50;;;;;24.49;90.23;116246.59;4974771;28;47548;-71
2022/09/14 01:49:35;;;;;;;;;0.00;0.00;;;;;24.46;89.00;120477.94;4993361;28;45550;-71
2022/09/14 01:52:21;;;;;;;;;5.00;3.75;;;;;24.40;89.46;119787.81;4994693;28;45541;-71
2022/09/14 01:54:57;;;;;;;;;3.25;2.25;;;;;24.48;90.06;118802.94;4970073;28;46501;-71
2022/09/14 01:57:32;;;;;;;;;5.00;2.00;;;;;24.48;88.32;124050.38;4994733;28;46547;-70
2022/09/14 02:00:04;;;;;;;;;2.00;2.00;;;;;24.46;87.86;126229.16;4990868;28;45498;-71
2022/09/14 02:02:34;;;;;;;;;3.00;3.00;;;;;24.49;88.48;125102.22;4992250;28;45404;-70
2022/09/14 02:05:13;;;;;;;;;3.00;2.00;;;;;24.48;88.04;125875.97;4994243;28;45423;-71
2022/09/14 02:07:38;;;;;;;;;2.00;2.00;;;;;24.47;90.50;115537.03;4989165;28;46520;-71
2022/09/14 02:10:08;;;;;;;;;1.00;1.00;;;;;24.38;88.85;123707.09;4994842;28;45456;-71
2022/09/14 02:12:35;;;;;;;;;2.67;2.67;;;;;24.33;88.91;124455.56;4993979;28;45389;-70
2022/09/14 02:15:00;;;;;;;;;2.00;2.00;;;;;24.41;87.75;127850.09;4993726;28;45568;-70
2022/09/14 02:17:28;;;;;;;;;2.67;2.67;;;;;24.27;90.00;120385.47;4993303;28;45482;-71
2022/09/14 02:19:59;;;;;;;;;3.67;3.00;;;;;24.37;90.04;116122.72;4991147;28;45536;-71
2022/09/14 02:22:26;;;;;;;;;2.00;2.00;;;;;24.36;90.64;115521.91;4994098;28;45532;-71
2022/09/14 02:24:52;;;;;;;;;3.00;3.00;;;;;24.34;90.27;116325.66;4971034;28;45569;-71
2022/09/14 02:27:18;;;;;;;;;2.67;2.67;;;;;24.23;91.05;113024.16;4991581;28;46057;-70
2022/09/14 02:29:43;;;;;;;;;6.00;3.33;;;;;24.32;91.54;107146.28;5033442;28;45578;-71
2022/09/14 02:32:14;;;;;;;;;3.00;3.00;;;;;24.27;90.66;111696.00;4994077;28;45381;-70
2022/09/14 02:34:47;;;;;;;;;3.00;3.00;;;;;24.25;91.80;108546.09;4993124;28;45475;-70
2022/09/14 02:37:54;;;;;;;;;2.67;2.00;;;;;24.21;90.81;112611.53;4993842;28;45380;-71
2022/09/14 02:40:27;;;;;;;;;3.50;3.00;;;;;24.18;90.72;111457.75;4933035;28;45484;-72
2022/09/14 02:43:08;;;;;;;;;5.50;2.25;;;;;24.20;90.74;114273.53;4907931;28;45409;-72
2022/09/14 02:45:54;;;;;;;;;3.67;2.33;;;;;24.21;90.09;114198.97;4932718;28;45525;-72
2022/09/14 02:48:25;;;;;;;;;3.25;3.25;;;;;24.21;91.25;110928.22;4932209;28;45540;-72
2022/09/14 02:51:03;;;;;;;;;1.75;1.75;;;;;24.10;91.38;107767.31;4931940;28;45438;-72
2022/09/14 02:53:37;;;;;;;;;3.25;3.25;;;;;24.17;92.03;105662.63;4914766;28;45420;-72
2022/09/14 02:56:07;;;;;;;;;4.00;3.00;;;;;24.15;91.35;108370.34;4933497;28;45694;-72
2022/09/14 02:58:38;;;;;;;;;3.50;2.00;;;;;24.13;92.46;101568.31;4945266;28;45491;-73
2022/09/14 03:01:05;;;;;;;;;2.50;2.50;;;;;24.12;92.82;99935.31;4948860;28;46815;-73
2022/09/14 03:03:31;;;;;;;;;3.00;2.00;;;;;24.11;91.95;104325.09;4938339;28;45489;-72
2022/09/14 03:05:57;;;;;;;;;4.00;3.00;;;;;24.11;91.97;104622.19;4946330;28;45468;-72
2022/09/14 03:08:23;;;;;;;;;2.75;2.75;;;;;24.11;92.46;102793.53;4932854;28;45721;-72
2022/09/14 03:10:49;;;;;;;;;1.00;1.00;;;;;24.11;93.31;96874.34;4933037;28;45472;-72
2022/09/14 03:13:14;;;;;;;;;4.25;3.25;;;;;24.09;93.67;93061.28;4931939;28;45389;-72
2022/09/14 03:15:40;;;;;;;;;3.00;3.00;;;;;24.11;93.46;94295.94;4933603;28;45382;-72
2022/09/14 03:18:06;;;;;;;;;2.00;2.00;;;;;24.08;93.30;96869.44;4987672;28;46619;-73
2022/09/14 03:20:32;;;;;;;;;4.00;2.00;;;;;24.09;93.24;95659.75;4993378;28;45609;-72
2022/09/14 03:22:59;;;;;;;;;3.00;3.00;;;;;24.07;93.29;98160.25;4993356;28;45495;-72
2022/09/14 03:25:25;;;;;;;;;1.50;1.50;;;;;24.07;93.12;95580.34;4992628;28;45537;-72
2022/09/14 03:27:56;;;;;;;;;3.25;3.25;;;;;24.02;93.29;95350.88;4976093;28;45651;-72
2022/09/14 03:30:21;;;;;;;;;3.50;2.00;;;;;24.10;93.08;96935.31;4992305;28;46018;-72
2022/09/14 03:32:47;;;;;;;;;3.00;3.00;;;;;24.07;92.69;100735.53;4993168;28;45401;-72
2022/09/14 03:35:13;;;;;;;;;3.00;3.00;;;;;24.02;92.46;100503.66;4993745;28;45519;-71
2022/09/14 03:37:40;;;;;;;;;5.00;5.00;;;;;24.09;92.79;99401.19;4993541;28;45512;-73
2022/09/14 03:40:07;;;;;;;;;3.00;3.00;;;;;24.06;93.23;98768.19;4991285;28;45403;-74
2022/09/14 03:42:33;;;;;;;;;4.00;4.00;;;;;24.06;93.64;96223.31;4981183;28;45429;-73
2022/09/14 03:44:58;;;;;;;;;4.75;4.00;;;;;24.02;93.29;97067.13;4992000;28;45583;-73
2022/09/14 03:47:24;;;;;;;;;4.00;4.00;;;;;24.01;92.97;96936.78;4991941;28;47059;-72
2022/09/14 03:49:49;;;;;;;;;5.00;3.50;;;;;23.83;92.88;98904.53;4993599;28;45434;-73
2022/09/14 03:52:15;;;;;;;;;2.75;2.75;;;;;23.99;92.81;99485.84;4992863;28;46231;-72
2022/09/14 03:54:40;;;;;;;;;5.00;4.00;;;;;23.84;93.39;97244.09;4988231;28;45764;-73
2022/09/14 03:57:06;;;;;;;;;4.00;4.00;;;;;23.97;93.34;95665.50;4992285;28;46307;-73
2022/09/14 03:59:32;;;;;;;;;5.00;5.00;;;;;23.96;93.52;96667.41;4974695;28;45359;-73
2022/09/14 04:01:57;;;;;;;;;4.67;4.00;;;;;23.96;93.28;96869.53;4992090;28;45452;-73
2022/09/14 04:04:23;;;;;;;;;5.00;5.00;;;;;23.93;93.32;96266.25;4994446;28;45443;-72
2022/09/14 04:06:48;;;;;;;;;4.50;4.00;;;;;23.94;93.12;98062.38;4973201;28;46045;-72
2022/09/14 04:09:13;;;;;;;;;6.50;2.50;;;;;23.95;92.31;100453.59;4975552;28;45408;-72
2022/09/14 04:11:39;;;;;;;;;6.33;3.33;;;;;23.95;93.19;99218.69;4991558;28;45885;-72
2022/09/14 04:14:04;;;;;;;;;3.75;3.75;;;;;23.95;92.42;102916.31;4993897;27;45502;-73
2022/09/14 04:16:30;;;;;;;;;5.33;5.00;;;;;23.91;91.45;108251.69;4990772;28;46153;-73
2022/09/14 04:18:55;;;;;;;;;3.00;2.00;;;;;23.93;91.14;111119.38;4985362;28;45630;-74
2022/09/14 04:21:24;;;;;;;;;3.00;3.00;;;;;23.87;90.22;113959.31;4997662;28;45578;-73
2022/09/14 04:23:54;;;;;;;;;4.00;3.00;;;;;23.91;90.56;114711.81;4992835;28;45559;-74
2022/09/14 04:26:21;;;;;;;;;3.00;3.00;;;;;23.92;91.22;110725.41;4986452;28;45524;-73
2022/09/14 04:28:46;;;;;;;;;3.50;3.00;;;;;23.91;91.56;110213.22;5001068;28;45762;-73
2022/09/14 04:31:12;;;;;;;;;6.50;3.75;;;;;23.81;91.47;110546.47;4992334;28;45389;-73
2022/09/14 04:33:40;;;;;;;;;5.00;5.00;;;;;23.88;90.31;113076.47;4970381;28;45452;-74
2022/09/14 04:36:10;;;;;;;;;2.25;2.25;;;;;23.86;90.14;116421.59;4986239;28;47227;-74
2022/09/14 04:38:37;;;;;;;;;3.00;3.00;;;;;23.84;89.06;119282.44;4991346;28;45416;-75
2022/09/14 04:41:05;;;;;;;;;6.67;4.00;;;;;23.84;89.67;117551.84;4983658;28;45461;-72
2022/09/14 04:43:31;;;;;;;;;2.50;2.50;;;;;23.78;90.28;117387.81;4993647;28;45455;-72
2022/09/14 04:46:09;;;;;;;;;3.25;2.50;;;;;23.79;89.78;117968.28;4995059;28;46079;-72
2022/09/14 04:48:35;;;;;;;;;3.67;3.00;;;;;23.83;89.34;120977.88;4996267;28;45301;-72
2022/09/14 04:51:07;;;;;;;;;2.00;2.00;;;;;23.76;89.22;121603.00;4979230;28;45431;-72
2022/09/14 04:53:34;;;;;;;;;4.75;4.50;;;;;23.82;89.38;120246.53;4980366;28;45786;-72
2022/09/14 04:56:01;;;;;;;;;3.00;3.00;;;;;23.62;90.88;115766.03;4990039;28;46629;-71
2022/09/14 04:58:27;;;;;;;;;4.00;4.00;;;;;23.77;90.98;113535.88;4993617;28;45647;-71
2022/09/14 05:00:54;;;;;;;;;3.00;3.00;;;;;23.82;90.51;115481.00;4993380;28;45444;-71
2022/09/14 05:03:20;;;;;;;;;5.00;3.00;;;;;23.78;89.86;118800.03;4985657;28;47047;-71
2022/09/14 05:05:46;;;;;;;;;3.00;3.00;;;;;23.74;90.10;117628.56;4971332;28;46377;-70
2022/09/14 05:08:12;;;;;;;;;2.67;2.67;;;;;23.84;90.39;116755.50;4967502;28;45645;-70
2022/09/14 05:10:37;;;;;;;;;4.00;2.25;;;;;23.84;91.15;114155.63;4979802;28;45517;-70
2022/09/14 05:13:02;;;;;;;;;8.00;4.00;;;;;23.85;91.50;111715.66;4982883;28;45454;-70
2022/09/14 05:15:27;;;;;;;;;4.33;4.33;;;;;23.79;92.42;107618.84;4984111;28;55360;-70
2022/09/14 05:17:53;;;;;;;;;4.00;4.00;;;;;23.59;92.51;104921.97;4999313;27;45506;-71
2022/09/14 05:20:18;;;;;;;;;2.75;2.75;;;;;23.68;92.38;104701.97;5000466;27;45418;-71
2022/09/14 05:22:43;;;;;;;;;3.00;3.00;;;;;23.77;91.91;107553.38;4980476;28;45586;-70
2022/09/14 05:25:09;;;;;;;;;3.67;3.33;;;;;23.77;90.93;111031.06;4992604;27;46351;-70
2022/09/14 05:27:34;;;;;;;;;5.33;5.33;;;;;23.55;92.24;106900.00;5004814;27;45743;-70
2022/09/14 05:29:59;;;;;;;;;3.00;3.00;;;;;23.53;93.08;102956.19;4988506;28;45459;-72
2022/09/14 05:32:25;;;;;;;;;4.00;2.00;;;;;23.55;93.07;101448.16;4984131;28;45482;-71
2022/09/14 05:34:50;;;;;;;;;3.00;3.00;;;;;23.50;93.39;100115.41;4984026;27;45890;-75
2022/09/14 05:37:15;;;;;;;;;4.00;4.00;;;;;23.47;93.80;96409.09;4993270;28;45920;-74
2022/09/14 05:39:41;;;;;;;;;4.00;4.00;;;;;23.44;93.87;96258.25;4981961;28;45903;-75
2022/09/14 05:42:06;;;;;;;;;4.00;4.00;;;;;23.39;93.47;96756.31;4982091;28;45494;-74
2022/09/14 05:44:31;;;;;;;;;3.33;3.33;;;;;23.41;93.62;95125.81;4989096;28;52157;-75
2022/09/14 05:46:57;;;;;;;;;3.33;3.00;;;;;23.39;93.77;94428.03;4991601;28;45531;-74
2022/09/14 05:49:24;;;;;;;;;3.67;3.67;;;;;23.32;95.07;88522.66;4971975;28;45580;-74
2022/09/14 05:51:49;;;;;;;;;8.00;5.00;;;;;23.42;94.12;91999.16;4977540;28;45743;-75
2022/09/14 05:54:14;;;;;;;;;5.33;4.00;;;;;23.43;93.62;94150.41;4998052;27;46841;-77
2022/09/14 05:56:40;;;;;;;;;5.25;3.00;;;;;23.45;93.95;94031.38;4994302;28;45507;-78
2022/09/14 05:59:05;;;;;;;;;3.75;3.75;;;;;23.67;92.27;101021.63;4979172;28;45526;-79
2022/09/14 06:01:31;;;;;;;;;7.67;6.33;;;;;23.72;92.48;103151.09;4970699;28;45994;-78
2022/09/14 06:04:01;;;;;;;;;4.00;4.00;;;;;23.60;91.96;105771.00;4992667;28;45392;-77
2022/09/14 06:06:28;;;;;;;;;5.67;4.67;;;;;23.76;91.94;105105.81;4980368;28;45436;-77
2022/09/14 06:08:55;;;;;;;;;5.00;5.00;;;;;23.78;91.69;109351.41;4990620;28;45449;-77
2022/09/14 06:11:23;;;;;;;;;4.33;4.33;;;;;23.79;90.52;112407.69;4993160;28;45455;-78
2022/09/14 06:13:49;;;;;;;;;2.75;2.75;;;;;23.75;91.16;112533.78;4994532;28;45317;-77
2022/09/14 06:16:17;;;;;;;;;6.50;3.50;;;;;23.77;90.83;113378.47;4994957;28;45306;-79
2022/09/14 06:18:44;;;;;;;;;3.00;3.00;;;;;23.86;90.57;115107.34;4995066;28;45413;-79
2022/09/14 06:21:13;;;;;;;;;7.00;4.00;;;;;23.84;89.09;119339.88;4978139;28;45603;-80
2022/09/14 06:23:39;;;;;;;;;4.00;3.25;;;;;23.85;89.58;120468.72;4991827;28;45463;-74
2022/09/14 06:26:05;;;;;;;;;5.67;3.00;;;;;23.77;88.70;122922.88;4993873;28;45490;-75
2022/09/14 06:28:31;;;;;;;;;4.00;4.00;;;;;23.88;89.39;121636.56;4996298;28;45785;-80
2022/09/14 06:30:57;;;;;;;;;2.67;2.67;;;;;23.84;90.29;119027.16;5009214;28;45523;-74
2022/09/14 06:33:23;;;;;;;;;3.00;2.67;;;;;23.94;89.42;120068.53;4995303;28;45527;-74
2022/09/14 06:36:00;;;;;;;;;4.67;3.67;;;;;23.91;88.47;125035.69;4995559;28;45425;-74
2022/09/14 06:38:26;;;;;;;;;5.00;5.00;;;;;23.95;88.28;127275.84;4995526;28;45499;-75
2022/09/14 06:40:55;;;;;;;;;4.50;4.00;;;;;23.98;88.36;126082.19;4995347;28;45436;-78
2022/09/14 06:43:21;;;;;;;;;3.50;3.50;;;;;24.00;89.53;123050.19;4988610;28;45942;-74
2022/09/14 06:46:01;;;;;;;;;4.00;4.00;;;;;24.03;89.83;119631.69;4988729;28;45460;-74
2022/09/14 06:48:30;;;;;;;;;4.00;4.00;;;;;23.98;91.86;112587.69;4995307;28;45487;-75
2022/09/14 06:50:55;;;;;;;;;4.67;4.67;;;;;24.07;92.74;107469.03;4995847;28;45297;-75
2022/09/14 06:53:21;;;;;;;;;5.00;5.00;;;;;24.04;91.99;109052.19;4977557;28;47162;-75
2022/09/14 06:55:47;;;;;;;;;4.00;3.25;;;;;23.99;91.93;109394.94;4995442;28;45311;-74
2022/09/14 06:58:13;;;;;;;;;4.00;4.00;;;;;24.10;91.54;112077.09;4995421;28;45364;-75
2022/09/14 07:00:38;;;;;;;;;3.67;3.67;;;;;23.99;91.49;112570.47;4995856;28;45350;-74
2022/09/14 07:03:04;;;;;;;;;4.00;4.00;;;;;24.07;91.54;110867.31;4994714;28;46204;-75
2022/09/14 07:05:29;;;;;;;;;5.00;5.00;;;;;24.19;92.47;106523.47;4995351;28;45444;-75
2022/09/14 07:07:56;;;;;;;;;4.50;3.50;;;;;24.23;91.03;112098.09;4993762;28;45474;-75
2022/09/14 07:10:22;;;;;;;;;5.50;3.50;;;;;24.25;90.70;114459.91;4995363;28;45427;-74
2022/09/14 07:12:47;;;;;;;;;5.25;4.00;;;;;24.23;90.25;115853.84;4994928;28;45317;-75
2022/09/14 07:15:12;;;;;;;;;3.00;3.00;;;;;24.25;89.58;118878.00;4995208;28;45503;-74
2022/09/14 07:17:38;;;;;;;;;5.25;5.25;;;;;24.25;89.63;119586.69;4976516;28;45368;-74
2022/09/14 07:20:05;;;;;;;;;4.50;3.00;;;;;24.30;91.67;113293.47;4995163;28;45420;-74
2022/09/14 07:22:34;;;;;;;;;4.75;4.75;;;;;24.18;90.64;115529.63;4995109;28;46098;-75
2022/09/14 07:24:59;;;;;;;;;5.75;4.00;;;;;24.32;91.51;114390.53;4995017;28;45456;-75
2022/09/14 07:27:25;;;;;;;;;2.25;2.00;;;;;24.35;91.07;114257.91;4995207;28;45431;-76
2022/09/14 07:29:51;;;;;;;;;3.00;3.00;;;;;24.39;91.94;112172.25;4995224;28;45420;-74
2022/09/14 07:32:16;;;;;;;;;3.00;3.00;;;;;24.44;90.15;118243.03;4994440;28;46970;-74
2022/09/14 07:34:42;;;;;;;;;3.75;2.50;;;;;24.46;90.04;119694.94;4994984;28;45391;-75
2022/09/14 07:37:07;;;;;;;;;6.50;5.00;;;;;24.47;90.42;118936.06;4995045;28;45347;-74
2022/09/14 07:39:33;;;;;;;;;5.75;4.25;;;;;24.46;89.24;122192.31;4995309;28;45559;-72
2022/09/14 07:41:58;;;;;;;;;4.00;4.00;;;;;24.46;90.40;120623.06;5048862;28;45330;-72
2022/09/14 07:44:24;;;;;;;;;3.50;3.50;;;;;24.49;89.43;123223.25;4998687;28;45393;-72
2022/09/14 07:46:49;;;;;;;;;4.75;4.75;;;;;24.49;89.84;121952.06;4994617;28;45309;-72
2022/09/14 07:49:15;;;;;;;;;2.75;2.75;;;;;24.63;89.98;122726.28;4995185;28;45501;-72
2022/09/14 07:51:41;;;;;;;;;5.75;3.25;;;;;24.61;89.50;125758.34;4994603;28;46366;-72
2022/09/14 07:54:10;;;;;;;;;1.25;1.25;;;;;24.77;89.27;125774.84;4994680;28;45392;-73
2022/09/14 07:56:35;;;;;;;;;6.50;4.00;;;;;24.73;89.23;124793.84;4994780;28;45440;-72
2022/09/14 07:59:01;;;;;;;;;4.00;4.00;;;;;24.78;88.72;128619.69;4995141;28;45321;-72
2022/09/14 08:01:29;;;;;;;;;2.75;2.75;;;;;24.85;88.86;128936.91;4994394;28;46301;-72
2022/09/14 08:03:55;;;;;;;;;4.25;3.25;;;;;24.85;88.25;130784.97;4994487;28;45297;-72
2022/09/14 08:06:23;;;;;;;;;6.00;4.75;;;;;24.78;88.96;129949.53;4976907;28;45179;-72
2022/09/14 08:08:51;;;;;;;;;4.00;1.75;;;;;24.76;88.12;132466.44;4995046;28;45548;-72
2022/09/14 08:11:25;;;;;;;;;5.25;4.00;;;;;25.00;87.77;135583.59;4994391;28;45748;-72
2022/09/14 08:13:52;;;;;;;;;4.00;3.00;;;;;25.09;87.83;134599.16;5033149;28;45380;-72
2022/09/14 08:16:18;;;;;;;;;5.00;3.50;;;;;25.21;86.99;137347.88;5012816;28;45351;-72
2022/09/14 08:18:44;;;;;;;;;3.00;3.00;;;;;25.27;86.17;141246.34;4993759;28;45327;-73
2022/09/14 08:21:12;;;;;;;;;5.50;4.00;;;;;25.33;86.38;141344.88;4994169;28;46441;-73
2022/09/14 08:23:39;;;;;;;;;3.75;3.75;;;;;25.36;86.74;140987.13;4993973;28;45582;-73
2022/09/14 08:26:14;;;;;;;;;6.00;4.00;;;;;26.30;84.24;147155.44;5028270;28;45343;-73
2022/09/14 08:28:40;;;;;;;;;4.00;4.00;;;;;26.38;81.83;154063.91;5019091;28;45374;-73
2022/09/14 08:31:11;;;;;;;;;6.50;6.50;;;;;26.36;83.13;157124.81;5045932;28;45411;-73
2022/09/14 08:33:39;;;;;;;;;3.50;3.00;;;;;26.40;82.25;157758.94;4993982;28;45449;-73
2022/09/14 08:36:07;;;;;;;;;4.00;4.00;;;;;26.45;80.73;157770.91;4994394;28;45427;-73
2022/09/14 08:38:32;;;;;;;;;3.00;3.00;;;;;26.47;80.92;157776.25;4994058;28;45352;-73
2022/09/14 08:41:08;;;;;;;;;4.25;3.25;;;;;26.63;81.97;157817.53;4969973;28;45838;-73
2022/09/14 08:43:37;;;;;;;;;3.25;3.25;;;;;26.72;80.80;157842.81;4994218;28;45401;-73
2022/09/14 08:46:08;;;;;;;;;3.00;2.00;;;;;26.66;79.67;157825.50;4976100;28;45460;-73
2022/09/14 08:48:38;;;;;;;;;3.00;3.00;;;;;26.86;79.49;157877.44;4976558;28;45580;-74
2022/09/14 08:51:04;;;;;;;;;2.00;2.00;;;;;26.95;79.36;157901.41;4993886;28;45416;-73
2022/09/14 08:53:34;;;;;;;;;3.00;3.00;;;;;27.09;77.84;157938.66;4994031;28;45368;-74
2022/09/14 08:56:05;;;;;;;;;3.00;3.00;;;;;27.14;78.15;157950.63;4994070;28;45362;-75
2022/09/14 08:58:50;;;;;;;;;4.25;3.00;;;;;27.19;77.93;157963.94;4993838;28;45627;-74
2022/09/14 09:01:43;;;;;;;;;2.00;2.00;;;;;27.15;77.08;157953.28;4993727;28;46796;-74
2022/09/14 09:04:36;;;;;;;;;3.25;3.25;;;;;27.11;76.21;157942.63;4993784;28;45666;-74
2022/09/14 09:07:16;;;;;;;;;2.75;2.75;;;;;27.19;76.65;157962.63;4993812;28;45286;-74
2022/09/14 09:09:47;;;;;;;;;3.25;3.25;;;;;27.20;75.96;157966.63;4994004;28;45413;-74
2022/09/14 09:12:27;;;;;;;;;1.25;1.25;;;;;27.11;74.24;157942.63;4993510;28;45397;-74
2022/09/14 09:14:59;;;;;;;;;4.00;3.00;;;;;27.14;73.17;157950.63;4993394;28;45523;-74
2022/09/14 09:17:35;;;;;;;;;2.50;2.50;;;;;27.17;74.60;157958.59;4992708;28;45431;-74
2022/09/14 09:20:25;;;;;;;;;2.25;2.25;;;;;27.32;71.98;157997.25;4993741;28;45417;-74
2022/09/14 09:22:56;;;;;;;;;4.25;3.00;;;;;27.46;71.00;158034.50;4993247;28;46411;-74
2022/09/14 09:25:28;;;;;;;;;3.75;2.00;;;;;27.54;71.33;158054.53;4993427;28;45436;-74
2022/09/14 09:28:01;;;;;;;;;2.00;2.00;;;;;27.64;70.07;158079.81;4993407;28;45520;-74
2022/09/14 09:30:28;;;;;;;;;2.25;2.25;;;;;27.72;69.76;158102.47;4974628;28;45398;-74
2022/09/14 09:32:53;;;;;;;;;2.25;2.25;;;;;28.80;69.10;158383.59;4996169;28;45678;-74
2022/09/14 09:35:23;;;;;;;;;3.00;3.00;;;;;30.00;65.95;157662.91;4996352;28;45453;-74
2022/09/14 09:37:48;;;;;;;;;1.50;1.50;;;;;30.74;62.09;151065.88;4996435;28;45567;-74
2022/09/14 09:40:27;;;;;;;;;3.50;3.00;;;;;31.40;59.98;144860.66;4996879;28;45243;-75
2022/09/14 09:43:12;;;;;;;;;4.00;2.25;;;;;32.49;56.62;26714.22;4995956;28;45713;-74
2022/09/14 09:45:59;;;;;;;;;3.00;1.50;;;;;34.13;51.54;-20106.19;4995819;28;46413;-74
2022/09/14 09:48:45;;;;;;;;;4.00;4.00;;;;;35.82;49.26;-20149.25;4996385;28;45537;-74
2022/09/14 09:51:25;;;;;;;;;3.00;2.00;;;;;37.09;46.63;-20181.53;4995028;28;45333;-75
2022/09/14 09:53:54;;;;;;;;;0.75;0.75;;;;;38.28;42.85;-20211.53;4995802;28;46188;-75
2022/09/14 09:56:25;;;;;;;;;0.25;0.00;;;;;38.73;39.15;-20223.09;4995727;28;45444;-74
2022/09/14 09:58:50;;;;;;;;;1.50;1.50;;;;;38.54;39.57;-20218.16;4996303;28;45370;-75
2022/09/14 10:01:28;;;;;;;;;1.75;1.00;;;;;38.46;40.29;-20216.09;4996190;28;45642;-75
2022/09/14 10:04:16;;;;;;;;;1.00;1.00;;;;;38.34;40.19;-20213.22;4995952;28;46198;-75
2022/09/14 10:06:49;;;;;;;;;2.50;2.50;;;;;38.38;39.30;-20214.28;4995898;28;45363;-74
2022/09/14 10:09:17;;;;;;;;;0.50;0.50;;;;;39.03;38.37;-20230.75;4996084;28;45370;-75
2022/09/14 10:11:45;;;;;;;;;3.00;3.00;;;;;39.10;37.87;-20232.28;4995994;28;45492;-75
2022/09/14 10:14:22;;;;;;;;;0.00;0.00;;;;;39.08;38.04;-20231.78;4995932;28;45916;-75
2022/09/14 10:16:48;;;;;;;;;1.00;1.00;;;;;39.36;36.90;-20239.03;4994872;28;45286;-75
2022/09/14 10:19:19;;;;;;;;;5.00;3.00;;;;;39.53;35.86;-20243.19;4996067;28;45509;-75
2022/09/14 10:22:12;;;;;;;;;1.00;1.00;;;;;39.35;35.68;-20238.78;4964670;28;45369;-74
2022/09/14 10:24:38;;;;;;;;;2.50;2.25;;;;;39.05;35.71;-20231.25;4961904;28;47347;-74
2022/09/14 10:27:40;;;;;;;;;0.75;0.75;;;;;39.53;35.93;-20243.31;4977815;28;45786;-75
2022/09/14 10:30:16;;;;;;;;;0.00;0.00;;;;;40.29;34.27;-20262.59;5051113;28;45901;-74
2022/09/14 10:33:04;;;;;;;;;1.00;1.00;;;;;41.00;33.45;-20280.31;4985650;27;45440;-75
2022/09/14 10:36:03;;;;;;;;;1.75;1.75;;;;;41.10;33.07;-20282.88;4979165;28;46218;-74
2022/09/14 10:38:39;;;;;;;;;0.00;0.00;;;;;41.06;32.94;-20281.84;4989414;28;45527;-74
2022/09/14 10:41:13;;;;;;;;;1.00;1.00;;;;;41.50;32.69;-20293.09;4993726;28;45405;-74
2022/09/14 10:44:07;;;;;;;;;1.25;0.25;;;;;42.13;31.58;-20308.97;4995271;28;45511;-74
2022/09/14 10:46:51;;;;;;;;;0.50;0.00;;;;;42.78;31.19;-20325.31;4948138;28;45380;-74
2022/09/14 10:49:42;;;;;;;;;0.25;0.25;;;;;42.99;29.21;-20330.59;4946745;28;45716;-74
2022/09/14 10:52:24;;;;;;;;;1.00;1.00;;;;;42.73;30.41;-20324.03;4946417;28;45717;-75
2022/09/14 10:55:30;;;;;;;;;0.25;0.25;;;;;42.09;30.28;-20307.94;4950528;28;45433;-75
2022/09/14 10:58:24;;;;;;;;;0.50;0.50;;;;;41.21;31.00;-20285.59;4941583;28;46485;-75
2022/09/14 11:01:12;;;;;;;;;1.00;1.00;;;;;40.53;31.56;-20268.41;4953209;28;45501;-74
2022/09/14 11:04:00;;;;;;;;;0.00;0.00;;;;;40.15;32.00;-20258.84;4990734;28;46060;-78
2022/09/14 11:06:35;;;;;;;;;0.25;0.25;;;;;39.64;31.31;-20246.03;4937616;28;45446;-75
2022/09/14 11:09:05;;;;;;;;;1.00;1.00;;;;;38.84;32.90;-20225.94;4952626;28;46013;-74
2022/09/14 11:11:33;;;;;;;;;2.75;1.00;;;;;38.12;33.31;-20207.66;4953162;28;45463;-76
2022/09/14 11:14:08;;;;;;;;;2.00;2.00;;;;;37.33;35.18;-20187.50;4953055;28;45664;-75
2022/09/14 11:16:46;;;;;;;;;2.00;1.00;;;;;36.64;36.46;-20170.09;4953911;28;45492;-75
2022/09/14 11:19:17;;;;;;;;;1.25;1.25;;;;;36.01;36.64;-20154.06;4937007;28;47415;-74
2022/09/14 11:21:42;;;;;;;;;1.00;1.00;;;;;35.34;37.19;-20137.00;4952932;28;45452;-78
2022/09/14 11:24:20;;;;;;;;;1.00;1.00;;;;;34.77;38.24;-20122.38;4978131;28;45360;-78
2022/09/14 11:27:03;;;;;;;;;2.00;2.00;;;;;34.36;38.82;-20112.06;4984114;28;45381;-75
2022/09/14 11:29:34;;;;;;;;;1.75;1.75;;;;;34.22;38.50;-20108.53;4985697;28;47284;-76
2022/09/14 11:32:22;;;;;;;;;2.00;2.00;;;;;34.08;40.00;-20104.72;4994016;28;45501;-75
2022/09/14 11:35:14;;;;;;;;;3.00;2.00;;;;;33.89;40.69;-20100.03;4973455;28;45591;-75
2022/09/14 11:37:46;;;;;;;;;1.00;1.00;;;;;34.00;40.43;-20102.91;4980070;28;45412;-75
2022/09/14 11:40:45;;;;;;;;;1.50;1.50;;;;;34.00;41.13;-20102.91;4982565;28;45510;-73
2022/09/14 11:43:24;;;;;;;;;1.00;1.00;;;;;33.90;40.92;-20100.16;4992288;28;45489;-74